Time;durP1;ratioP1;P1;durP2;ratioP2;P2;SDS_P1;SDS_P2;PMS_P1;PMS_P2;Temp;Humidity;BMP_temperature;BMP_pressure;BME280_temperature;BME280_humidity;BME280_pressure;Samples;Min_cycle;Max_cycle;Signal;HPM_P1;HPM_P2
2024/01/17 00:01:24;;;;;;;24.40;11.07;;;-2.30;21.40;;;;;;5072716;28;20039;-71
2024/01/17 00:03:49;;;;;;;24.90;10.20;;;-2.20;18.90;;;;;;5073091;28;20483;-71
2024/01/17 00:06:15;;;;;;;21.55;9.98;;;-2.30;17.20;;;;;;5072891;28;20525;-71
2024/01/17 00:08:41;;;;;;;30.45;10.27;;;-2.30;14.00;;;;;;5072955;28;20112;-71
2024/01/17 00:11:06;;;;;;;27.33;10.73;;;-2.20;10.60;;;;;;5072963;28;20115;-71
2024/01/17 00:13:34;;;;;;;21.08;9.68;;;-2.30;10.60;;;;;;5072423;28;20070;-71
2024/01/17 00:16:00;;;;;;;25.00;10.15;;;-2.40;8.70;;;;;;5072458;28;20029;-71
2024/01/17 00:18:25;;;;;;;25.60;10.23;;;-2.40;13.80;;;;;;5072936;28;20548;-71
2024/01/17 00:20:51;;;;;;;21.73;10.52;;;-2.30;14.40;;;;;;5072776;28;20032;-71
2024/01/17 00:23:16;;;;;;;19.63;9.80;;;-2.30;9.30;;;;;;5072907;28;20396;-71
2024/01/17 00:25:42;;;;;;;21.70;10.73;;;-2.30;9.50;;;;;;5072191;28;20490;-71
2024/01/17 00:28:07;;;;;;;20.52;9.98;;;-2.30;6.20;;;;;;5072332;28;20028;-71
2024/01/17 00:30:33;;;;;;;21.25;8.77;;;-2.40;8.20;;;;;;5072632;28;20017;-71
2024/01/17 00:32:58;;;;;;;18.58;10.20;;;-2.40;14.30;;;;;;5072780;28;20029;-71
2024/01/17 00:35:25;;;;;;;21.35;9.43;;;-2.50;16.80;;;;;;5072689;28;20020;-72
2024/01/17 00:37:51;;;;;;;21.85;9.85;;;-2.40;18.30;;;;;;5072693;28;20478;-72
2024/01/17 00:40:16;;;;;;;24.65;11.38;;;-2.40;19.50;;;;;;5072740;28;20032;-71
2024/01/17 00:42:42;;;;;;;20.10;9.77;;;-2.40;15.10;;;;;;5072552;28;20508;-71
2024/01/17 00:45:08;;;;;;;20.90;9.13;;;-2.50;10.00;;;;;;5072358;28;20021;-71
2024/01/17 00:47:34;;;;;;;27.50;10.50;;;-2.40;16.70;;;;;;5072245;28;20029;-72
2024/01/17 00:49:59;;;;;;;18.70;8.63;;;-2.50;14.80;;;;;;5072596;28;20119;-71
2024/01/17 00:52:25;;;;;;;17.67;8.70;;;-2.70;12.20;;;;;;5072589;28;20028;-71
2024/01/17 00:54:50;;;;;;;21.70;9.32;;;-2.70;16.20;;;;;;5075173;28;20082;-71
2024/01/17 00:57:16;;;;;;;20.30;9.82;;;-2.90;15.70;;;;;;5076192;28;20483;-71
2024/01/17 00:59:41;;;;;;;17.65;9.32;;;-2.90;23.90;;;;;;5076278;28;20111;-71
2024/01/17 01:02:07;;;;;;;23.52;10.10;;;-2.80;39.20;;;;;;5076050;28;20037;-71
2024/01/17 01:04:33;;;;;;;20.70;9.43;;;-2.80;37.60;;;;;;5075944;28;20028;-71
2024/01/17 01:06:58;;;;;;;22.48;10.07;;;-2.80;35.70;;;;;;5075412;28;20020;-71
2024/01/17 01:09:24;;;;;;;17.58;8.88;;;-2.80;37.30;;;;;;5075817;28;20032;-71
2024/01/17 01:11:49;;;;;;;19.55;9.60;;;-2.80;39.80;;;;;;5075755;28;20074;-71
2024/01/17 01:14:15;;;;;;;23.88;9.38;;;-2.80;36.10;;;;;;5075869;28;20081;-71
2024/01/17 01:16:42;;;;;;;20.58;9.50;;;-2.90;34.40;;;;;;5076031;28;20032;-71
2024/01/17 01:19:07;;;;;;;21.17;9.75;;;-3.00;33.90;;;;;;5075343;28;20059;-71
2024/01/17 01:21:33;;;;;;;18.05;9.45;;;-3.00;37.20;;;;;;5075404;28;20028;-71
2024/01/17 01:23:58;;;;;;;15.70;8.82;;;-3.10;38.50;;;;;;5075323;28;20050;-71
2024/01/17 01:26:24;;;;;;;21.60;9.32;;;-3.20;40.40;;;;;;5075465;28;20071;-71
2024/01/17 01:28:49;;;;;;;18.88;9.50;;;-3.20;48.10;;;;;;5075673;28;20035;-71
2024/01/17 01:31:15;;;;;;;22.88;9.52;;;-3.20;50.00;;;;;;5075615;28;20036;-71
2024/01/17 01:33:40;;;;;;;18.65;9.38;;;-3.20;52.50;;;;;;5075328;28;20032;-71
2024/01/17 01:36:06;;;;;;;22.25;9.88;;;-3.20;55.50;;;;;;5075386;28;20044;-71
2024/01/17 01:38:32;;;;;;;20.70;9.32;;;-3.20;56.70;;;;;;5075456;28;20139;-71
2024/01/17 01:40:58;;;;;;;17.60;8.90;;;-3.20;56.40;;;;;;5075445;28;20064;-71
2024/01/17 01:43:24;;;;;;;18.33;9.30;;;-3.10;59.90;;;;;;5075026;28;20029;-71
2024/01/17 01:46:17;;;;;;;20.77;9.40;;;-3.20;54.70;;;;;;5074580;28;20238;-71
2024/01/17 01:48:43;;;;;;;20.87;9.27;;;-3.30;55.90;;;;;;5075176;28;20482;-71
2024/01/17 01:51:11;;;;;;;17.42;8.00;;;-3.30;61.10;;;;;;5075085;28;20680;-72
2024/01/17 01:53:39;;;;;;;22.30;9.00;;;-3.30;56.10;;;;;;5075079;28;20025;-71
2024/01/17 01:56:06;;;;;;;16.45;7.90;;;-3.40;49.60;;;;;;5074940;28;20025;-71
2024/01/17 01:58:35;;;;;;;17.20;8.35;;;-3.50;49.00;;;;;;5075057;28;20025;-71
2024/01/17 02:01:01;;;;;;;14.90;8.02;;;-3.60;50.70;;;;;;5074909;28;20097;-71
2024/01/17 02:03:28;;;;;;;16.92;8.60;;;-3.70;53.70;;;;;;5074875;28;20036;-72
2024/01/17 02:05:54;;;;;;;17.85;8.57;;;-3.70;58.10;;;;;;5074638;28;20035;-72
2024/01/17 02:08:19;;;;;;;20.52;8.68;;;-3.70;66.10;;;;;;5074805;28;20111;-72
2024/01/17 02:10:45;;;;;;;16.20;8.18;;;-3.80;73.10;;;;;;5074772;28;20078;-72
2024/01/17 02:13:10;;;;;;;19.60;8.75;;;-3.80;81.80;;;;;;5074253;28;20028;-72
2024/01/17 02:15:36;;;;;;;28.70;9.75;;;-3.80;91.20;;;;;;5074261;28;20107;-72
2024/01/17 02:18:03;;;;;;;23.52;8.82;;;-3.70;95.30;;;;;;5074307;28;20474;-72
2024/01/17 02:20:29;;;;;;;17.58;9.52;;;-3.60;98.40;;;;;;5074473;28;20056;-71
2024/01/17 02:22:54;;;;;;;21.17;9.05;;;-3.50;96.90;;;;;;5074163;28;20056;-71
2024/01/17 02:25:20;;;;;;;22.40;9.05;;;-3.50;91.70;;;;;;5074536;28;20409;-71
2024/01/17 02:27:45;;;;;;;17.13;8.70;;;-3.50;85.40;;;;;;5074278;28;20035;-71
2024/01/17 02:30:14;;;;;;;16.23;8.32;;;-3.60;81.90;;;;;;5074411;28;20024;-71
2024/01/17 02:32:39;;;;;;;21.02;9.05;;;-3.60;78.80;;;;;;5074395;28;20016;-71
2024/01/17 02:35:05;;;;;;;16.05;7.90;;;-3.60;83.00;;;;;;5074330;28;20024;-72
2024/01/17 02:37:31;;;;;;;16.10;9.05;;;-3.70;78.80;;;;;;5074238;28;20078;-71
2024/01/17 02:39:56;;;;;;;15.50;8.77;;;-3.70;86.90;;;;;;5074233;28;20516;-72
2024/01/17 02:42:22;;;;;;;22.73;9.20;;;-3.60;88.60;;;;;;5074052;28;20128;-71
2024/01/17 02:44:47;;;;;;;21.15;8.95;;;-3.60;86.30;;;;;;5074194;28;20119;-72
2024/01/17 02:47:13;;;;;;;20.58;9.30;;;-3.70;81.40;;;;;;5073565;28;20048;-71
2024/01/17 02:49:39;;;;;;;17.92;8.55;;;-3.70;79.60;;;;;;5074027;28;20028;-71
2024/01/17 02:52:05;;;;;;;21.60;9.15;;;-3.70;80.00;;;;;;5073856;28;20109;-72
2024/01/17 02:54:31;;;;;;;18.92;9.10;;;-3.80;80.60;;;;;;5074025;28;20398;-71
2024/01/17 02:56:56;;;;;;;21.23;9.48;;;-3.80;85.80;;;;;;5073940;28;20035;-71
2024/01/17 02:59:22;;;;;;;18.40;9.32;;;-3.70;91.60;;;;;;5073965;28;20431;-72
2024/01/17 03:01:48;;;;;;;20.35;9.52;;;-3.80;92.90;;;;;;5073941;28;20036;-71
2024/01/17 03:04:13;;;;;;;20.85;9.45;;;-3.70;92.60;;;;;;5073682;28;20067;-71
2024/01/17 03:06:39;;;;;;;22.30;9.93;;;-3.80;93.30;;;;;;5073568;28;20111;-71
2024/01/17 03:09:04;;;;;;;19.40;9.70;;;-3.70;96.50;;;;;;5073830;28;20066;-71
2024/01/17 03:11:30;;;;;;;26.30;9.85;;;-3.60;96.90;;;;;;5073769;28;20028;-71
2024/01/17 03:13:56;;;;;;;19.92;9.63;;;-3.60;96.30;;;;;;5073606;28;20367;-71
2024/01/17 03:16:21;;;;;;;27.92;10.13;;;-3.60;96.70;;;;;;5073267;28;20533;-71
2024/01/17 03:18:47;;;;;;;17.38;9.18;;;-3.60;96.50;;;;;;5073223;28;20067;-71
2024/01/17 03:21:14;;;;;;;19.30;10.45;;;-3.60;96.80;;;;;;5073107;28;20067;-71
2024/01/17 03:23:39;;;;;;;22.42;10.85;;;-3.60;95.70;;;;;;5073603;28;20037;-71
2024/01/17 03:26:05;;;;;;;20.85;10.05;;;-3.60;96.70;;;;;;5073250;28;20032;-71
2024/01/17 03:28:31;;;;;;;23.85;10.30;;;-3.60;96.40;;;;;;5073461;28;20040;-71
2024/01/17 03:30:56;;;;;;;27.55;10.73;;;-3.60;96.70;;;;;;5073450;28;20363;-72
2024/01/17 03:33:22;;;;;;;22.92;11.07;;;-3.60;96.10;;;;;;5072863;28;20082;-71
2024/01/17 03:35:47;;;;;;;20.60;10.30;;;-3.60;95.10;;;;;;5073464;28;20032;-71
2024/01/17 03:38:13;;;;;;;21.75;9.98;;;-3.60;96.10;;;;;;5073395;28;20033;-71
2024/01/17 03:40:38;;;;;;;20.98;10.82;;;-3.60;96.70;;;;;;5073417;28;20040;-71
2024/01/17 03:43:04;;;;;;;21.30;10.05;;;-3.60;97.10;;;;;;5073360;28;20137;-71
2024/01/17 03:45:29;;;;;;;25.20;10.32;;;-3.70;96.50;;;;;;5073004;28;20406;-71
2024/01/17 03:47:55;;;;;;;25.35;10.15;;;-3.70;96.30;;;;;;5073386;28;20029;-71
2024/01/17 03:50:20;;;;;;;17.33;9.70;;;-3.70;96.30;;;;;;5073318;28;20068;-71
2024/01/17 03:52:46;;;;;;;19.85;10.07;;;-3.70;96.60;;;;;;5072971;28;20021;-71
2024/01/17 03:55:11;;;;;;;22.63;10.65;;;-3.80;97.20;;;;;;5073121;28;20024;-71
2024/01/17 03:57:37;;;;;;;20.38;10.40;;;-3.80;99.90;;;;;;5072798;28;20114;-71
2024/01/17 04:00:04;;;;;;;19.85;10.02;;;-3.80;99.90;;;;;;5073067;28;20486;-71
2024/01/17 04:02:30;;;;;;;25.45;10.85;;;-3.90;99.90;;;;;;5073359;28;20029;-72
2024/01/17 04:04:55;;;;;;;25.30;11.82;;;-3.80;99.90;;;;;;5073183;28;20079;-71
2024/01/17 04:07:22;;;;;;;23.67;11.73;;;-3.60;99.90;;;;;;5072674;28;20036;-71
2024/01/17 04:09:48;;;;;;;23.95;13.15;;;-3.60;99.90;;;;;;5072710;28;20025;-71
2024/01/17 04:12:13;;;;;;;26.20;11.80;;;-3.50;99.90;;;;;;5072990;28;20039;-71
2024/01/17 04:14:39;;;;;;;24.58;12.05;;;-3.40;99.90;;;;;;5072850;28;20029;-71
2024/01/17 04:17:04;;;;;;;24.98;12.15;;;-3.40;99.90;;;;;;5072985;28;20029;-71
2024/01/17 04:19:30;;;;;;;25.88;12.45;;;-3.40;99.90;;;;;;5072861;28;20033;-71
2024/01/17 04:21:56;;;;;;;26.60;12.38;;;-3.40;99.90;;;;;;5072849;28;20027;-71
2024/01/17 04:24:24;;;;;;;25.38;12.00;;;-3.40;99.90;;;;;;5072886;28;20033;-72
2024/01/17 04:26:49;;;;;;;27.10;11.50;;;-3.50;99.40;;;;;;5072432;28;20063;-71
2024/01/17 04:29:15;;;;;;;37.83;12.80;;;-3.50;99.90;;;;;;5075165;28;20409;-71
2024/01/17 04:31:42;;;;;;;24.52;12.48;;;-3.40;99.90;;;;;;5076696;28;20075;-72
2024/01/17 04:34:07;;;;;;;24.02;11.55;;;-3.40;99.90;;;;;;5076608;28;20410;-71
2024/01/17 04:36:33;;;;;;;27.95;12.65;;;-3.30;99.80;;;;;;5076663;28;20028;-71
2024/01/17 04:39:00;;;;;;;24.38;11.75;;;-3.30;98.30;;;;;;5076499;28;20060;-71
2024/01/17 04:41:26;;;;;;;24.20;11.60;;;-3.30;96.40;;;;;;5076514;28;20505;-71
2024/01/17 04:43:51;;;;;;;25.70;12.30;;;-3.30;94.60;;;;;;5076838;28;20028;-71
2024/01/17 04:46:17;;;;;;;27.40;12.20;;;-3.30;95.00;;;;;;5076007;28;20052;-71
2024/01/17 04:48:44;;;;;;;28.20;12.50;;;-3.30;94.50;;;;;;5076126;28;20052;-71
2024/01/17 04:51:10;;;;;;;23.92;11.50;;;-3.30;93.50;;;;;;5076285;28;20492;-71
2024/01/17 04:53:38;;;;;;;25.23;11.98;;;-3.30;93.30;;;;;;5076292;28;20021;-71
2024/01/17 04:56:05;;;;;;;25.80;12.40;;;-3.30;92.90;;;;;;5075968;28;20038;-71
2024/01/17 04:58:32;;;;;;;28.40;12.60;;;-3.30;93.90;;;;;;5076134;28;20044;-71
2024/01/17 05:00:58;;;;;;;28.50;12.07;;;-3.30;94.20;;;;;;5076078;28;20161;-71
2024/01/17 05:03:23;;;;;;;27.45;12.52;;;-3.30;92.00;;;;;;5076146;28;20029;-71
2024/01/17 05:05:49;;;;;;;26.95;12.07;;;-3.30;91.90;;;;;;5075964;28;20465;-71
2024/01/17 05:08:14;;;;;;;30.77;14.13;;;-3.30;93.20;;;;;;5075810;28;20162;-71
2024/01/17 05:10:43;;;;;;;26.50;13.63;;;-3.30;93.00;;;;;;5075893;28;20394;-71
2024/01/17 05:13:10;;;;;;;30.00;13.27;;;-3.30;92.60;;;;;;5075509;28;20017;-71
2024/01/17 05:15:36;;;;;;;35.83;15.20;;;-3.30;93.10;;;;;;5075806;28;20056;-71
2024/01/17 05:18:02;;;;;;;32.45;15.90;;;-3.40;92.60;;;;;;5075879;28;20083;-71
2024/01/17 05:20:27;;;;;;;37.00;15.48;;;-3.30;94.10;;;;;;5075400;28;20021;-72
2024/01/17 05:22:53;;;;;;;30.67;13.95;;;-3.30;94.60;;;;;;5075751;28;20169;-71
2024/01/17 05:25:18;;;;;;;26.70;14.95;;;-3.30;95.50;;;;;;5075755;28;20493;-71
2024/01/17 05:27:51;;;;;;;26.17;12.85;;;-3.30;95.00;;;;;;5075145;28;20021;-71
2024/01/17 05:30:19;;;;;;;25.83;13.18;;;-3.30;94.20;;;;;;5075693;28;20028;-71
2024/01/17 05:32:45;;;;;;;27.05;13.23;;;-3.30;94.70;;;;;;5075444;28;20486;-71
2024/01/17 05:35:10;;;;;;;25.15;12.90;;;-3.30;94.40;;;;;;5075517;28;20051;-71
2024/01/17 05:37:40;;;;;;;37.85;14.27;;;-3.40;94.80;;;;;;5075669;28;20063;-71
2024/01/17 05:40:08;;;;;;;31.85;13.25;;;-3.40;95.40;;;;;;5074984;28;20039;-71
2024/01/17 05:42:33;;;;;;;23.13;11.65;;;-3.40;96.60;;;;;;5075320;28;20111;-71
2024/01/17 05:44:59;;;;;;;30.95;13.65;;;-3.40;96.90;;;;;;5075210;28;20387;-71
2024/01/17 05:47:24;;;;;;;32.17;13.95;;;-3.40;97.30;;;;;;5075009;28;20050;-71
2024/01/17 05:49:50;;;;;;;28.27;13.82;;;-3.50;98.00;;;;;;5075201;28;20478;-71
2024/01/17 05:52:15;;;;;;;25.50;12.85;;;-3.50;98.70;;;;;;5075111;28;20021;-71
2024/01/17 05:54:42;;;;;;;33.40;14.98;;;-3.50;99.50;;;;;;5075070;28;20040;-71
2024/01/17 05:57:07;;;;;;;32.90;13.95;;;-3.50;99.90;;;;;;5074804;28;20029;-71
2024/01/17 05:59:33;;;;;;;28.08;13.80;;;-3.50;99.90;;;;;;5075006;28;20036;-71
2024/01/17 06:01:59;;;;;;;27.88;13.23;;;-3.40;99.90;;;;;;5074719;28;20063;-71
2024/01/17 06:04:24;;;;;;;26.48;13.25;;;-3.40;99.90;;;;;;5075000;28;20056;-71
2024/01/17 06:06:50;;;;;;;30.55;13.68;;;-3.40;99.90;;;;;;5074442;28;20386;-72
2024/01/17 06:09:15;;;;;;;26.38;12.52;;;-3.40;99.90;;;;;;5074802;28;20074;-72
2024/01/17 06:11:41;;;;;;;23.85;12.68;;;-3.50;99.90;;;;;;5074709;28;20120;-71
2024/01/17 06:14:06;;;;;;;27.08;12.98;;;-3.50;99.90;;;;;;5074638;28;20025;-71
2024/01/17 06:16:32;;;;;;;28.80;13.73;;;-3.50;99.90;;;;;;5074300;28;20020;-72
2024/01/17 06:18:59;;;;;;;23.73;12.98;;;-3.60;99.90;;;;;;5074757;28;20036;-71
2024/01/17 06:21:25;;;;;;;29.83;12.65;;;-3.60;99.90;;;;;;5074173;28;20017;-71
2024/01/17 06:23:51;;;;;;;26.73;13.02;;;-3.60;99.90;;;;;;5074740;28;20059;-71
2024/01/17 06:26:17;;;;;;;27.00;12.48;;;-3.60;99.90;;;;;;5074338;28;20486;-71
2024/01/17 06:28:43;;;;;;;26.00;12.75;;;-3.70;99.90;;;;;;5074327;28;20059;-71
2024/01/17 06:31:08;;;;;;;29.58;14.07;;;-3.70;99.90;;;;;;5074430;28;20032;-72
2024/01/17 06:33:34;;;;;;;25.23;13.85;;;-3.70;99.90;;;;;;5074339;28;20493;-71
2024/01/17 06:35:59;;;;;;;26.80;13.75;;;-3.70;99.90;;;;;;5073855;28;20031;-71
2024/01/17 06:38:25;;;;;;;29.05;13.57;;;-3.80;99.90;;;;;;5073850;28;20410;-71
2024/01/17 06:40:50;;;;;;;30.42;14.18;;;-3.80;99.90;;;;;;5074303;28;20107;-72
2024/01/17 06:43:16;;;;;;;31.08;14.30;;;-3.70;99.90;;;;;;5074075;28;20185;-71
2024/01/17 06:45:42;;;;;;;30.42;14.73;;;-3.70;99.90;;;;;;5073650;28;20517;-72
2024/01/17 06:48:08;;;;;;;28.38;13.95;;;-3.70;99.90;;;;;;5074128;28;20024;-72
2024/01/17 06:50:34;;;;;;;26.40;13.35;;;-3.60;99.90;;;;;;5073480;28;20394;-72
2024/01/17 06:52:59;;;;;;;28.92;15.32;;;-3.60;99.90;;;;;;5073700;28;20086;-72
2024/01/17 06:55:25;;;;;;;27.13;14.23;;;-3.60;99.90;;;;;;5073804;28;20025;-72
2024/01/17 06:57:51;;;;;;;33.03;15.07;;;-3.60;99.90;;;;;;5073858;28;20029;-72
2024/01/17 07:00:17;;;;;;;35.60;16.10;;;-3.60;99.90;;;;;;5073688;28;20401;-71
2024/01/17 07:02:43;;;;;;;32.47;16.00;;;-3.60;99.90;;;;;;5073673;28;20020;-71
2024/01/17 07:05:09;;;;;;;32.70;16.70;;;-3.60;99.90;;;;;;5073654;28;20440;-72
2024/01/17 07:07:34;;;;;;;39.25;18.00;;;-3.50;99.90;;;;;;5073338;28;20031;-72
2024/01/17 07:10:00;;;;;;;42.42;17.52;;;-3.50;99.90;;;;;;5073355;28;20486;-71
2024/01/17 07:12:25;;;;;;;33.50;14.77;;;-3.50;99.90;;;;;;5073281;28;20024;-72
2024/01/17 07:14:54;;;;;;;30.15;15.07;;;-3.50;99.90;;;;;;5073571;28;20124;-71
2024/01/17 07:17:19;;;;;;;29.15;14.70;;;-3.40;99.90;;;;;;5073713;28;20025;-72
2024/01/17 07:19:45;;;;;;;29.52;13.45;;;-3.40;99.90;;;;;;5073043;28;20024;-71
2024/01/17 07:22:13;;;;;;;32.55;15.32;;;-3.40;99.90;;;;;;5073523;28;20032;-71
2024/01/17 07:24:38;;;;;;;30.25;13.43;;;-3.40;99.90;;;;;;5073477;28;20020;-71
2024/01/17 07:27:04;;;;;;;29.73;13.88;;;-3.40;99.90;;;;;;5073236;28;20375;-72
2024/01/17 07:29:29;;;;;;;30.58;13.32;;;-3.40;99.90;;;;;;5073431;28;20021;-72
2024/01/17 07:31:55;;;;;;;29.98;13.38;;;-3.40;99.90;;;;;;5073232;28;20033;-71
2024/01/17 07:34:20;;;;;;;28.58;13.88;;;-3.30;99.90;;;;;;5073176;28;20025;-72
2024/01/17 07:36:46;;;;;;;28.17;13.93;;;-3.40;99.90;;;;;;5073043;28;20498;-72
2024/01/17 07:39:14;;;;;;;28.67;13.35;;;-3.30;99.90;;;;;;5070566;28;20043;-72
2024/01/17 07:41:40;;;;;;;30.40;13.63;;;-3.30;99.90;;;;;;5070969;28;20503;-72
2024/01/17 07:44:06;;;;;;;26.67;14.18;;;-3.30;99.90;;;;;;5068380;28;20071;-71
2024/01/17 07:46:32;;;;;;;33.25;16.50;;;-3.20;99.90;;;;;;5065564;28;20399;-72
2024/01/17 07:48:58;;;;;;;33.53;15.70;;;-3.20;99.90;;;;;;5072398;28;20028;-73
2024/01/17 07:51:23;;;;;;;34.65;14.55;;;-3.20;99.90;;;;;;5078981;28;20028;-72
2024/01/17 07:53:49;;;;;;;36.25;15.25;;;-3.20;99.90;;;;;;5086032;28;20035;-72
2024/01/17 07:56:15;;;;;;;34.20;15.00;;;-3.10;99.90;;;;;;5088614;28;20068;-72
2024/01/17 07:58:40;;;;;;;32.58;13.80;;;-3.10;99.40;;;;;;5052556;28;20036;-72
2024/01/17 08:01:06;;;;;;;31.88;13.75;;;-3.00;97.70;;;;;;5067091;28;20025;-72
2024/01/17 08:03:32;;;;;;;28.40;14.57;;;-3.00;94.90;;;;;;5074512;28;20036;-72
2024/01/17 08:05:58;;;;;;;26.73;13.65;;;-2.90;94.20;;;;;;5073135;28;20035;-72
2024/01/17 08:08:23;;;;;;;26.13;14.18;;;-2.80;92.90;;;;;;5077059;28;20031;-72
2024/01/17 08:10:49;;;;;;;29.60;13.38;;;-2.70;89.50;;;;;;5072429;28;20024;-72
2024/01/17 08:13:14;;;;;;;28.42;12.85;;;-2.70;79.20;;;;;;5059262;28;20416;-72
2024/01/17 08:15:41;;;;;;;26.55;14.05;;;-2.70;70.50;;;;;;5066155;28;20464;-72
2024/01/17 08:18:08;;;;;;;36.80;13.60;;;-2.60;67.70;;;;;;5076950;28;20021;-72
2024/01/17 08:20:34;;;;;;;32.55;14.45;;;-2.60;62.90;;;;;;5071754;28;20025;-72
2024/01/17 08:22:59;;;;;;;30.67;14.07;;;-2.50;57.10;;;;;;5056642;28;20079;-72
2024/01/17 08:25:26;;;;;;;28.63;14.70;;;-2.50;53.50;;;;;;5056708;28;20017;-72
2024/01/17 08:27:54;;;;;;;26.05;12.63;;;-2.50;51.30;;;;;;5056438;28;20032;-72
2024/01/17 08:30:19;;;;;;;30.90;13.60;;;-2.40;50.90;;;;;;5057414;28;20032;-72
2024/01/17 08:32:45;;;;;;;28.98;13.82;;;-2.40;50.10;;;;;;5056445;28;20037;-72
2024/01/17 08:35:12;;;;;;;25.13;13.45;;;-2.30;45.00;;;;;;5068129;28;20033;-72
2024/01/17 08:37:37;;;;;;;23.45;13.18;;;-2.30;40.60;;;;;;5076330;28;20117;-72
2024/01/17 08:40:04;;;;;;;27.15;13.65;;;-2.20;38.10;;;;;;5071812;28;20071;-72
2024/01/17 08:42:29;;;;;;;29.42;13.52;;;-2.10;35.30;;;;;;5076212;28;20036;-72
2024/01/17 08:44:55;;;;;;;27.25;14.25;;;-2.00;36.20;;;;;;5070935;28;20028;-72
2024/01/17 08:47:20;;;;;;;29.30;13.65;;;-2.00;30.00;;;;;;5062749;28;20033;-72
2024/01/17 08:49:46;;;;;;;29.17;14.00;;;-2.00;27.00;;;;;;5063180;28;20108;-72
2024/01/17 08:52:11;;;;;;;31.88;14.35;;;-1.90;22.80;;;;;;5084776;28;20027;-72
2024/01/17 08:54:37;;;;;;;27.15;13.40;;;-1.90;13.50;;;;;;5087344;28;20028;-72
2024/01/17 08:57:03;;;;;;;33.40;14.57;;;-1.90;11.30;;;;;;5084699;28;20044;-72
2024/01/17 08:59:30;;;;;;;29.85;14.13;;;-1.80;15.00;;;;;;5090709;28;20035;-72
2024/01/17 09:01:56;;;;;;;29.60;14.55;;;-1.80;13.70;;;;;;5085117;28;20435;-72
2024/01/17 09:04:23;;;;;;;28.13;13.82;;;-1.60;11.40;;;;;;5075580;28;20482;-71
2024/01/17 09:06:49;;;;;;;29.80;14.40;;;-1.60;3.10;;;;;;5065557;28;20505;-72
2024/01/17 09:09:15;;;;;;;27.80;13.25;;;-1.60;1.00;;;;;;5074890;28;20028;-72
2024/01/17 09:11:41;;;;;;;28.13;13.05;;;-1.60;1.00;;;;;;5074349;28;20027;-72
2024/01/17 09:14:07;;;;;;;24.10;12.05;;;-1.50;1.00;;;;;;5075355;28;20032;-72
2024/01/17 09:16:33;;;;;;;24.60;12.30;;;-1.40;1.00;;;;;;5069205;28;20047;-72
2024/01/17 09:18:59;;;;;;;30.23;12.80;;;-1.40;1.00;;;;;;5056694;28;20031;-72
2024/01/17 09:21:25;;;;;;;27.35;12.07;;;-1.40;1.00;;;;;;5066886;28;20123;-72
2024/01/17 09:23:50;;;;;;;28.77;11.25;;;-1.40;1.00;;;;;;5066443;28;20518;-72
2024/01/17 09:26:16;;;;;;;25.48;11.80;;;-1.20;1.00;;;;;;5077160;28;20474;-71
2024/01/17 09:28:42;;;;;;;26.52;12.38;;;-1.10;1.00;;;;;;5065512;28;20032;-72
2024/01/17 09:31:08;;;;;;;26.85;11.43;;;-1.00;1.00;;;;;;5073670;28;20052;-73
2024/01/17 09:33:35;;;;;;;25.85;10.80;;;-1.00;1.00;;;;;;5070659;28;20028;-72
2024/01/17 09:36:01;;;;;;;23.20;11.57;;;-0.90;1.00;;;;;;5075277;28;20028;-73
2024/01/17 09:38:26;;;;;;;24.35;10.90;;;-0.80;1.00;;;;;;5076497;28;20032;-73
2024/01/17 09:40:53;;;;;;;24.30;10.07;;;-0.70;1.00;;;;;;5072970;28;20078;-73
2024/01/17 09:43:19;;;;;;;20.00;10.48;;;-0.80;99.90;;;;;;5074865;28;20020;-72
2024/01/17 09:45:46;;;;;;;21.45;10.18;;;-0.60;1.00;;;;;;5071125;28;20066;-72
2024/01/17 09:48:14;;;;;;;22.73;10.80;;;-0.40;1.00;;;;;;5064722;28;20028;-72
2024/01/17 09:50:40;;;;;;;24.13;10.32;;;-0.20;99.90;;;;;;5061269;28;20029;-72
2024/01/17 09:53:12;;;;;;;17.33;9.93;;;-0.10;99.90;;;;;;5075188;28;20028;-73
2024/01/17 09:55:38;;;;;;;16.83;10.18;;;0.10;99.90;;;;;;5081960;28;20021;-72
2024/01/17 09:58:05;;;;;;;19.48;9.75;;;0.30;1.00;;;;;;5066992;28;20025;-73
2024/01/17 10:00:32;;;;;;;16.80;9.68;;;0.40;99.90;;;;;;5076472;28;20036;-72
2024/01/17 10:02:59;;;;;;;19.40;9.88;;;0.60;1.00;;;;;;5076800;28;20024;-72
2024/01/17 10:05:30;;;;;;;20.48;9.93;;;0.80;22.30;;;;;;5082853;28;20362;-72
2024/01/17 10:07:58;;;;;;;19.38;9.60;;;0.90;1.00;;;;;;5090950;28;20124;-72
2024/01/17 10:10:24;;;;;;;18.33;9.60;;;0.60;1.00;;;;;;5072593;28;20036;-73
2024/01/17 10:12:51;;;;;;;21.92;9.35;;;0.60;1.00;;;;;;5078741;28;20506;-72
2024/01/17 10:15:17;;;;;;;17.38;8.77;;;0.70;99.90;;;;;;5090626;28;20515;-72
2024/01/17 10:17:43;;;;;;;18.45;9.68;;;0.80;99.90;;;;;;5067135;28;20111;-72
2024/01/17 10:20:09;;;;;;;20.45;9.65;;;0.80;99.90;;;;;;5069825;28;20246;-72
2024/01/17 10:22:35;;;;;;;21.65;11.10;;;1.00;99.90;;;;;;5074323;28;20064;-72
2024/01/17 10:25:02;;;;;;;22.17;10.23;;;0.90;1.00;;;;;;5077763;28;20520;-72
2024/01/17 10:27:28;;;;;;;22.02;9.45;;;0.90;99.90;;;;;;5069804;28;20366;-72
2024/01/17 10:29:54;;;;;;;16.83;9.15;;;0.80;24.80;;;;;;5072704;28;20032;-72
2024/01/17 10:32:21;;;;;;;19.92;9.60;;;0.60;99.90;;;;;;5075770;28;20028;-72
2024/01/17 10:34:46;;;;;;;20.02;8.95;;;0.60;99.90;;;;;;5070762;28;20150;-72
2024/01/17 10:37:14;;;;;;;22.02;9.98;;;0.60;1.00;;;;;;5072985;28;20111;-72
2024/01/17 10:39:40;;;;;;;23.95;8.35;;;0.50;90.70;;;;;;5057997;28;20021;-72
2024/01/17 10:42:18;;;;;;;17.90;8.38;;;0.60;99.90;;;;;;5072685;28;20016;-72
2024/01/17 10:44:43;;;;;;;14.10;8.25;;;0.60;99.90;;;;;;5068896;28;20390;-72
2024/01/17 10:47:09;;;;;;;19.17;9.27;;;0.60;45.30;;;;;;5069705;28;20041;-72
2024/01/17 10:49:34;;;;;;;20.55;9.80;;;0.60;99.90;;;;;;5072085;28;20036;-72
2024/01/17 10:52:08;;;;;;;19.65;8.63;;;0.60;1.00;;;;;;5070687;28;20102;-72
2024/01/17 10:54:59;;;;;;;17.77;9.13;;;0.50;99.90;;;;;;5066936;28;20025;-72
2024/01/17 10:57:27;;;;;;;22.75;8.23;;;0.40;99.90;;;;;;5067513;28;20041;-72
2024/01/17 10:59:55;;;;;;;22.17;8.82;;;0.40;30.60;;;;;;5074871;28;20032;-72
2024/01/17 11:02:22;;;;;;;27.58;9.30;;;0.40;1.00;;;;;;5063919;28;20501;-72
2024/01/17 11:04:57;;;;;;;24.75;10.93;;;0.20;64.90;;;;;;5074754;28;20044;-72
2024/01/17 11:07:24;;;;;;;22.30;9.13;;;0.30;98.90;;;;;;5065503;28;20086;-72
2024/01/17 11:09:52;;;;;;;22.45;9.02;;;0.20;1.00;;;;;;5073286;28;20074;-72
2024/01/17 11:12:19;;;;;;;17.65;9.02;;;0.20;99.90;;;;;;5070858;28;20383;-72
2024/01/17 11:14:46;;;;;;;24.65;11.07;;;0.30;99.90;;;;;;5070938;28;20536;-72
2024/01/17 11:17:13;;;;;;;17.52;9.23;;;0.30;99.90;;;;;;5074560;28;20406;-72
2024/01/17 11:19:43;;;;;;;26.20;9.55;;;0.40;99.90;;;;;;5065094;28;20059;-72
2024/01/17 11:22:11;;;;;;;18.30;8.45;;;0.40;99.90;;;;;;5066423;28;20032;-72
2024/01/17 11:25:01;;;;;;;20.92;9.25;;;0.50;99.90;;;;;;5064921;28;20486;-72
2024/01/17 11:27:50;;;;;;;17.10;9.07;;;0.50;1.00;;;;;;5071670;28;20495;-72
2024/01/17 11:30:41;;;;;;;16.25;8.98;;;0.70;1.00;;;;;;5055561;28;20509;-72
2024/01/17 11:33:10;;;;;;;18.20;9.45;;;0.80;12.20;;;;;;5062127;28;20036;-72
2024/01/17 11:35:52;;;;;;;18.23;8.73;;;0.90;21.60;;;;;;5064441;28;20028;-72
2024/01/17 11:41:06;;;;;;;19.92;9.10;;;0.80;99.90;;;;;;5073339;28;20407;-74
2024/01/17 11:43:35;;;;;;;20.07;9.53;;;0.90;99.90;;;;;;5050632;28;20487;-73
2024/01/17 11:46:04;;;;;;;22.08;8.93;;;1.00;1.00;;;;;;5044645;28;20074;-74
2024/01/17 11:48:30;;;;;;;20.73;9.27;;;0.90;99.90;;;;;;5048051;28;20042;-73
2024/01/17 11:51:14;;;;;;;18.00;8.55;;;0.80;1.00;;;;;;5060084;28;20047;-71
2024/01/17 11:53:41;;;;;;;21.58;9.02;;;0.90;99.90;;;;;;5037390;28;20021;-71
2024/01/17 11:56:09;;;;;;;17.52;8.57;;;1.00;99.90;;;;;;5041378;28;20418;-72
2024/01/17 11:58:52;;;;;;;19.00;8.77;;;1.00;99.90;;;;;;5045777;28;20028;-72
2024/01/17 12:03:59;;;;;;;19.88;8.70;;;1.00;1.00;;;;;;5108989;27;20461;-74
2024/01/17 12:06:24;;;;;;;22.40;9.00;;;1.10;1.00;;;;;;5092049;28;20024;-73
2024/01/17 12:08:52;;;;;;;20.25;8.73;;;1.20;1.00;;;;;;5093944;28;20036;-74
2024/01/17 12:11:18;;;;;;;21.33;8.88;;;1.20;99.90;;;;;;5102450;28;20030;-73
2024/01/17 12:13:44;;;;;;;20.30;8.32;;;1.20;99.90;;;;;;5089541;28;20028;-73
2024/01/17 12:16:11;;;;;;;14.63;8.40;;;1.20;99.90;;;;;;5086956;28;20051;-73
2024/01/17 12:18:37;;;;;;;17.23;9.02;;;1.10;99.90;;;;;;5098337;28;20084;-74
2024/01/17 12:21:04;;;;;;;18.77;8.98;;;1.10;6.80;;;;;;5090321;28;20423;-73
2024/01/17 12:23:31;;;;;;;15.75;8.35;;;1.00;99.90;;;;;;5096825;28;20055;-73
2024/01/17 12:25:57;;;;;;;17.70;8.38;;;0.90;99.90;;;;;;5089377;28;20067;-74
2024/01/17 12:28:24;;;;;;;20.02;8.77;;;0.90;99.90;;;;;;5092166;28;20024;-74
2024/01/17 12:30:58;;;;;;;22.95;8.65;;;1.00;1.00;;;;;;5097214;28;20130;-73
2024/01/17 12:33:26;;;;;;;16.92;9.13;;;1.00;1.00;;;;;;5093146;28;20043;-73
2024/01/17 12:35:53;;;;;;;18.17;8.20;;;1.00;99.90;;;;;;5069384;28;20070;-73
2024/01/17 12:38:19;;;;;;;21.80;9.00;;;1.00;99.90;;;;;;5076120;28;20044;-73